createdAt,value
2018-09-30T00:01:23.092Z,3.33
2018-09-30T00:03:52.075Z,3.67
2018-09-30T00:06:20.857Z,6.90
2018-09-30T00:08:49.718Z,3.70
2018-09-30T00:11:18.615Z,3.97
2018-09-30T00:13:47.415Z,3.87
2018-09-30T00:16:16.300Z,3.97
2018-09-30T00:18:45.165Z,4.10
2018-09-30T00:21:14.019Z,6.00
2018-09-30T00:23:47.866Z,4.13
2018-09-30T00:26:21.774Z,4.67
2018-09-30T00:28:50.617Z,3.87
2018-09-30T00:31:19.419Z,4.87
2018-09-30T00:33:53.255Z,5.73
2018-09-30T00:36:22.104Z,5.10
2018-09-30T00:38:50.943Z,5.00
2018-09-30T00:41:19.772Z,5.47
2018-09-30T00:43:48.561Z,7.27
2018-09-30T00:46:17.423Z,5.90
2018-09-30T00:48:46.291Z,5.37
2018-09-30T00:51:15.194Z,5.03
2018-09-30T00:53:45.358Z,5.53
2018-09-30T00:56:14.169Z,7.47
2018-09-30T00:58:42.974Z,5.97
2018-09-30T01:01:11.834Z,6.20
2018-09-30T01:03:41.641Z,6.90
2018-09-30T01:06:10.625Z,5.60
2018-09-30T01:08:39.450Z,6.27
2018-09-30T01:11:08.261Z,5.37
2018-09-30T01:13:37.397Z,5.87
2018-09-30T01:16:06.254Z,5.20
2018-09-30T01:18:35.107Z,4.93
2018-09-30T01:21:03.925Z,6.17
2018-09-30T01:23:32.763Z,4.37
2018-09-30T01:26:01.670Z,4.47
2018-09-30T01:28:30.611Z,4.30
2018-09-30T01:30:59.558Z,5.03
2018-09-30T01:33:28.382Z,4.87
2018-09-30T01:35:57.186Z,5.83
2018-09-30T01:38:26.397Z,3.50
2018-09-30T01:40:55.217Z,4.03
2018-09-30T01:43:24.047Z,3.30
2018-09-30T01:45:52.905Z,2.43
2018-09-30T01:48:21.714Z,2.97
2018-09-30T01:50:50.538Z,4.60
2018-09-30T01:53:19.410Z,3.00
2018-09-30T01:55:48.206Z,4.07
2018-09-30T01:58:17.014Z,4.23
2018-09-30T02:00:45.898Z,4.50
2018-09-30T02:03:14.686Z,3.57
2018-09-30T02:05:43.550Z,3.50
2018-09-30T02:08:12.398Z,2.97
2018-09-30T02:10:41.325Z,2.77
2018-09-30T02:13:10.121Z,5.00
2018-09-30T02:15:38.945Z,4.33
2018-09-30T02:18:07.817Z,3.00
2018-09-30T02:20:36.630Z,5.03
2018-09-30T02:23:05.440Z,2.93
2018-09-30T02:25:34.323Z,3.10
2018-09-30T02:28:03.158Z,4.83
2018-09-30T02:30:32.008Z,3.17
2018-09-30T02:33:00.919Z,5.47
2018-09-30T02:35:29.832Z,6.03
2018-09-30T02:37:58.725Z,4.50
2018-09-30T02:40:27.593Z,3.27
2018-09-30T02:42:56.418Z,3.23
2018-09-30T02:45:25.294Z,5.53
2018-09-30T02:47:54.088Z,4.07
2018-09-30T02:50:22.906Z,4.10
2018-09-30T02:52:51.783Z,4.30
2018-09-30T02:55:20.604Z,3.20
2018-09-30T02:57:49.406Z,3.37
2018-09-30T03:00:18.229Z,5.27
2018-09-30T03:02:47.115Z,4.63
2018-09-30T03:05:15.939Z,4.87
2018-09-30T03:07:49.922Z,3.53
2018-09-30T03:10:18.743Z,4.63
2018-09-30T03:12:47.586Z,6.10
2018-09-30T03:15:16.448Z,3.40
2018-09-30T03:17:45.274Z,6.73
2018-09-30T03:20:14.083Z,3.60
2018-09-30T03:22:42.944Z,5.23
2018-09-30T03:25:11.766Z,6.47
2018-09-30T03:27:40.597Z,4.53
2018-09-30T03:30:09.457Z,5.80
2018-09-30T03:32:38.277Z,4.50
2018-09-30T03:35:07.160Z,6.33
2018-09-30T03:37:37.258Z,5.53
2018-09-30T03:40:06.114Z,8.23
2018-09-30T03:42:35.032Z,4.00
2018-09-30T03:45:03.897Z,5.03
2018-09-30T03:47:32.751Z,6.03
2018-09-30T03:50:01.602Z,7.73
2018-09-30T03:52:30.501Z,4.90
2018-09-30T03:54:59.394Z,6.77
2018-09-30T03:57:28.191Z,4.47
2018-09-30T03:59:56.998Z,8.07
2018-09-30T04:02:25.859Z,5.23
2018-09-30T04:04:54.746Z,6.30
2018-09-30T04:07:23.573Z,7.83
2018-09-30T04:09:52.401Z,7.73
2018-09-30T04:12:21.251Z,7.13
2018-09-30T04:14:50.074Z,7.03
2018-09-30T04:17:18.935Z,6.20
2018-09-30T04:19:47.751Z,6.90
2018-09-30T04:22:16.609Z,6.47
2018-09-30T04:24:47.202Z,6.57
2018-09-30T04:27:15.995Z,5.83
2018-09-30T04:29:44.807Z,7.60
2018-09-30T04:32:15.016Z,12.20
2018-09-30T04:34:43.837Z,7.63
2018-09-30T04:37:12.689Z,7.23
2018-09-30T04:39:41.560Z,10.03
2018-09-30T04:42:10.394Z,8.40
2018-09-30T04:44:39.213Z,9.03
2018-09-30T04:47:08.058Z,10.03
2018-09-30T04:49:36.903Z,12.17
2018-09-30T04:52:05.766Z,10.10
2018-09-30T04:54:34.630Z,14.63
2018-09-30T04:57:03.479Z,9.73
2018-09-30T04:59:32.355Z,14.03
2018-09-30T05:02:01.334Z,11.90
2018-09-30T05:04:30.160Z,9.93
2018-09-30T05:06:59.016Z,10.60
2018-09-30T05:09:27.873Z,10.63
2018-09-30T05:11:56.766Z,12.87
2018-09-30T05:14:25.645Z,10.57
2018-09-30T05:16:56.006Z,13.40
2018-09-30T05:19:24.927Z,10.53
2018-09-30T05:21:53.736Z,10.17
2018-09-30T05:24:22.639Z,12.20
2018-09-30T05:26:51.502Z,10.97
2018-09-30T05:29:20.319Z,11.87
2018-09-30T05:31:50.499Z,11.43
2018-09-30T05:34:19.359Z,10.97
2018-09-30T05:36:48.179Z,11.93
2018-09-30T05:39:17.049Z,9.30
2018-09-30T05:41:45.902Z,10.00
2018-09-30T05:44:14.750Z,11.47
2018-09-30T05:46:44.828Z,11.40
2018-09-30T05:49:13.710Z,8.93
2018-09-30T05:51:42.697Z,11.10
2018-09-30T05:54:11.533Z,10.43
2018-09-30T05:56:40.317Z,10.13
2018-09-30T05:59:09.186Z,13.40
2018-09-30T06:01:38.107Z,8.00
2018-09-30T06:04:07.059Z,11.63
2018-09-30T06:06:35.880Z,9.90
2018-09-30T06:09:08.179Z,10.80
2018-09-30T06:11:36.961Z,8.40
2018-09-30T06:14:05.966Z,10.10
2018-09-30T06:16:36.116Z,8.60
2018-09-30T06:19:05.065Z,10.17
2018-09-30T06:21:33.963Z,11.63
2018-09-30T06:24:02.905Z,10.57
2018-09-30T06:26:31.728Z,9.60
2018-09-30T06:29:00.599Z,10.07
2018-09-30T06:31:29.514Z,8.73
2018-09-30T06:33:59.787Z,9.70
2018-09-30T06:36:28.745Z,11.60
2018-09-30T06:38:58.006Z,9.67
2018-09-30T06:41:27.069Z,12.20
2018-09-30T06:43:57.267Z,9.40
2018-09-30T06:46:26.189Z,8.03
2018-09-30T06:48:55.048Z,8.30
2018-09-30T06:51:23.939Z,9.53
2018-09-30T06:53:52.809Z,10.87
2018-09-30T06:56:21.734Z,8.80
2018-09-30T06:58:51.910Z,10.33
2018-09-30T07:01:20.740Z,11.20
2018-09-30T07:03:49.667Z,9.63
2018-09-30T07:06:18.497Z,14.27
2018-09-30T07:08:47.387Z,11.33
2018-09-30T07:11:16.368Z,7.90
2018-09-30T07:13:45.221Z,10.33
2018-09-30T07:16:14.079Z,11.47
2018-09-30T07:18:42.963Z,10.23
2018-09-30T07:21:11.818Z,7.57
2018-09-30T07:23:40.684Z,10.60
2018-09-30T07:26:10.822Z,8.73
2018-09-30T07:28:39.666Z,6.97
2018-09-30T07:31:08.814Z,9.23
2018-09-30T07:33:39.004Z,7.40
2018-09-30T07:36:07.921Z,6.60
2018-09-30T07:38:36.980Z,7.90
2018-09-30T07:41:07.281Z,7.03
2018-09-30T07:43:36.172Z,6.43
2018-09-30T07:46:05.041Z,6.30
2018-09-30T07:48:33.863Z,6.20
2018-09-30T07:51:02.778Z,6.33
2018-09-30T07:53:31.631Z,6.73
2018-09-30T07:56:00.530Z,8.47
2018-09-30T07:58:30.754Z,6.10
2018-09-30T08:01:02.311Z,6.33
2018-09-30T08:03:31.166Z,7.07
2018-09-30T08:06:00.027Z,7.17
2018-09-30T08:08:30.200Z,6.97
2018-09-30T08:10:59.069Z,7.50
2018-09-30T08:13:27.982Z,6.60
2018-09-30T08:15:56.851Z,9.33
2018-09-30T08:18:25.762Z,7.77
2018-09-30T08:20:54.582Z,5.73
2018-09-30T08:23:23.446Z,5.73
2018-09-30T08:25:52.326Z,8.53
2018-09-30T08:28:21.174Z,7.37
2018-09-30T08:30:50.118Z,7.07
2018-09-30T08:33:18.962Z,7.23
2018-09-30T08:35:53.062Z,7.40
2018-09-30T08:38:27.125Z,7.23
2018-09-30T08:41:03.312Z,7.13
2018-09-30T08:43:33.620Z,7.10
2018-09-30T08:46:02.547Z,7.10
2018-09-30T08:48:31.715Z,8.03
2018-09-30T08:51:00.578Z,5.60
2018-09-30T08:53:29.525Z,6.17
2018-09-30T08:55:58.961Z,7.77
2018-09-30T08:58:28.657Z,6.57
2018-09-30T09:00:57.573Z,5.90
2018-09-30T09:03:26.971Z,8.40
2018-09-30T09:05:55.917Z,5.57
2018-09-30T09:08:24.772Z,6.10
2018-09-30T09:10:53.675Z,7.90
2018-09-30T09:13:22.568Z,5.33
2018-09-30T09:15:51.402Z,5.47
2018-09-30T09:18:20.397Z,9.30
2018-09-30T09:20:49.410Z,7.20
2018-09-30T09:23:18.341Z,6.77
2018-09-30T09:25:47.285Z,6.53
2018-09-30T09:28:16.128Z,8.80
2018-09-30T09:30:45.023Z,5.90
2018-09-30T09:33:15.121Z,6.57
2018-09-30T09:35:44.020Z,8.83
2018-09-30T09:38:12.863Z,6.33
2018-09-30T09:40:43.015Z,7.23
2018-09-30T09:43:11.874Z,9.40
2018-09-30T09:45:40.716Z,6.83
2018-09-30T09:48:09.757Z,7.23
2018-09-30T09:50:38.607Z,6.10
2018-09-30T09:53:07.558Z,7.87
2018-09-30T09:55:37.814Z,6.53
2018-09-30T09:58:06.671Z,7.93
2018-09-30T10:00:40.650Z,8.60
2018-09-30T10:03:09.567Z,6.50
2018-09-30T10:05:38.427Z,8.43
2018-09-30T10:08:07.704Z,7.23
2018-09-30T10:10:36.747Z,8.87
2018-09-30T10:13:05.703Z,7.57
2018-09-30T10:15:34.643Z,5.97
2018-09-30T10:18:03.537Z,6.00
2018-09-30T10:20:32.392Z,7.37
2018-09-30T10:23:02.639Z,11.53
2018-09-30T10:25:31.498Z,7.33
2018-09-30T10:28:00.323Z,9.43
2018-09-30T10:30:29.267Z,7.87
2018-09-30T10:32:58.131Z,7.97
2018-09-30T10:35:27.059Z,8.10
2018-09-30T10:37:58.734Z,7.20
2018-09-30T10:40:27.580Z,8.27
2018-09-30T10:42:56.418Z,7.90
2018-09-30T10:45:25.254Z,9.20
2018-09-30T10:47:54.131Z,10.97
2018-09-30T10:50:22.934Z,9.47
2018-09-30T10:52:51.744Z,9.13
2018-09-30T10:55:20.598Z,8.97
2018-09-30T10:57:49.430Z,9.77
2018-09-30T11:00:18.246Z,9.50
2018-09-30T11:02:47.062Z,11.53
2018-09-30T11:05:17.581Z,8.13
2018-09-30T11:07:46.398Z,9.13
2018-09-30T11:10:15.317Z,10.00
2018-09-30T11:12:44.091Z,12.80
2018-09-30T11:15:12.919Z,12.60
2018-09-30T11:17:43.025Z,11.60
2018-09-30T11:20:11.876Z,8.90
2018-09-30T11:22:40.701Z,8.53
2018-09-30T11:25:10.807Z,8.80
2018-09-30T11:27:39.627Z,14.17
2018-09-30T11:30:08.494Z,8.53
2018-09-30T11:32:37.359Z,10.17
2018-09-30T11:35:06.259Z,7.23
2018-09-30T11:37:36.499Z,7.97
2018-09-30T11:40:06.066Z,8.70
2018-09-30T11:42:34.973Z,10.83
2018-09-30T11:45:03.885Z,9.00
2018-09-30T11:47:32.704Z,9.67
2018-09-30T11:50:01.595Z,10.37
2018-09-30T11:52:30.452Z,12.47
2018-09-30T11:54:59.291Z,9.07
2018-09-30T11:57:28.167Z,11.17
2018-09-30T11:59:56.999Z,11.13
2018-09-30T12:02:25.949Z,8.77
2018-09-30T12:04:54.928Z,8.50
2018-09-30T12:07:23.783Z,9.30
2018-09-30T12:09:52.610Z,10.17
2018-09-30T12:12:21.492Z,10.37
2018-09-30T12:14:50.358Z,9.93
2018-09-30T12:17:20.454Z,7.80
2018-09-30T12:19:49.303Z,12.03
2018-09-30T12:22:18.140Z,9.23
2018-09-30T12:24:47.015Z,11.27
2018-09-30T12:27:15.817Z,8.27
2018-09-30T12:29:44.641Z,7.93
2018-09-30T12:32:13.531Z,10.30
2018-09-30T12:34:42.400Z,8.20
2018-09-30T12:37:11.328Z,9.17
2018-09-30T12:39:40.142Z,10.87
2018-09-30T12:42:10.199Z,8.80
2018-09-30T12:44:39.055Z,9.97
2018-09-30T12:47:07.890Z,9.03
2018-09-30T12:49:36.731Z,8.13
2018-09-30T12:52:05.643Z,8.10
2018-09-30T12:54:34.490Z,7.50
2018-09-30T12:57:03.338Z,8.80
2018-09-30T12:59:33.450Z,8.20
2018-09-30T13:02:02.576Z,7.50
2018-09-30T13:04:31.436Z,8.73
2018-09-30T13:07:00.262Z,9.77
2018-09-30T13:09:29.228Z,7.23
2018-09-30T13:11:58.059Z,9.53
2018-09-30T13:14:26.899Z,9.63
2018-09-30T13:16:55.804Z,8.90
2018-09-30T13:19:24.677Z,7.00
2018-09-30T13:21:53.654Z,9.87
2018-09-30T13:24:22.505Z,10.80
2018-09-30T13:26:51.335Z,10.93
2018-09-30T13:29:20.239Z,8.70
2018-09-30T13:31:49.207Z,8.80
2018-09-30T13:34:18.018Z,10.80
2018-09-30T13:36:46.916Z,10.73
2018-09-30T13:39:17.263Z,9.47
2018-09-30T13:41:46.114Z,8.37
2018-09-30T13:44:15.055Z,9.53
2018-09-30T13:46:43.892Z,8.63
2018-09-30T13:49:15.605Z,8.83
2018-09-30T13:51:45.819Z,8.87
2018-09-30T13:54:14.822Z,8.40
2018-09-30T13:56:43.687Z,6.90
2018-09-30T13:59:12.527Z,8.60
2018-09-30T14:01:42.635Z,7.77
2018-09-30T14:04:14.045Z,6.67
2018-09-30T14:06:42.888Z,10.40
2018-09-30T14:09:11.882Z,7.33
2018-09-30T14:11:40.734Z,7.53
2018-09-30T14:14:09.577Z,8.37
2018-09-30T14:16:38.473Z,7.53
2018-09-30T14:19:07.403Z,10.83
2018-09-30T14:21:36.280Z,6.37
2018-09-30T14:24:05.094Z,6.30
2018-09-30T14:26:33.907Z,6.00
2018-09-30T14:29:03.996Z,6.73
2018-09-30T14:31:32.843Z,8.33
2018-09-30T14:34:01.782Z,6.83
2018-09-30T14:36:31.847Z,8.47
2018-09-30T14:39:00.663Z,7.10
2018-09-30T14:41:29.470Z,8.27
2018-09-30T14:43:58.651Z,8.53
2018-09-30T14:46:27.459Z,6.93
2018-09-30T14:48:56.274Z,7.13
2018-09-30T14:51:25.130Z,8.17
2018-09-30T14:53:55.189Z,6.90
2018-09-30T14:56:24.182Z,9.23
2018-09-30T14:58:53.124Z,7.80
2018-09-30T15:01:21.967Z,5.83
2018-09-30T15:03:52.185Z,6.03
2018-09-30T15:06:21.176Z,8.13
2018-09-30T15:08:51.406Z,7.33
2018-09-30T15:13:54.378Z,11.73
2018-09-30T15:16:23.247Z,6.80
2018-09-30T15:18:53.321Z,8.83
2018-09-30T15:21:22.137Z,7.47
2018-09-30T15:23:50.971Z,7.43
2018-09-30T15:26:19.946Z,8.67
2018-09-30T15:28:48.812Z,11.90
2018-09-30T15:31:20.362Z,8.87
2018-09-30T15:33:49.191Z,7.70
2018-09-30T15:36:18.139Z,9.57
2018-09-30T15:38:47.568Z,9.67
2018-09-30T15:41:16.443Z,9.90
2018-09-30T15:43:45.284Z,7.97
2018-09-30T15:46:14.159Z,7.27
2018-09-30T15:48:43.024Z,6.47
2018-09-30T15:51:11.912Z,10.03
2018-09-30T15:53:42.176Z,10.53
2018-09-30T15:56:12.458Z,9.27
2018-09-30T15:58:41.312Z,15.03
2018-09-30T16:01:10.240Z,8.70
2018-09-30T16:03:40.430Z,10.67
2018-09-30T16:06:09.260Z,10.80
2018-09-30T16:08:38.114Z,7.20
2018-09-30T16:11:08.683Z,12.67
2018-09-30T16:13:37.542Z,9.87
2018-09-30T16:16:06.482Z,8.60
2018-09-30T16:18:36.641Z,7.17
2018-09-30T16:21:05.663Z,11.23
2018-09-30T16:23:34.980Z,7.97
2018-09-30T16:26:03.918Z,7.27
2018-09-30T16:28:32.767Z,11.73
2018-09-30T16:31:01.737Z,10.23
2018-09-30T16:33:33.416Z,7.00
2018-09-30T16:36:03.028Z,11.77
2018-09-30T16:38:31.955Z,7.60
2018-09-30T16:41:00.897Z,9.03
2018-09-30T16:43:29.822Z,13.73
2018-09-30T16:45:59.969Z,8.50
2018-09-30T16:48:30.297Z,11.27
2018-09-30T16:50:59.207Z,11.30
2018-09-30T16:53:28.388Z,12.07
2018-09-30T16:55:58.240Z,9.27
2018-09-30T16:58:28.567Z,9.13
2018-09-30T17:00:57.460Z,7.07
2018-09-30T17:03:26.461Z,11.23
2018-09-30T17:05:56.756Z,9.97
2018-09-30T17:08:25.718Z,10.73
2018-09-30T17:10:54.718Z,13.83
2018-09-30T17:13:23.954Z,9.47
2018-09-30T17:15:52.920Z,7.67
2018-09-30T17:18:21.755Z,11.60
2018-09-30T17:20:50.751Z,10.17
2018-09-30T17:23:19.742Z,10.13
2018-09-30T17:25:48.921Z,9.80
2018-09-30T17:28:17.912Z,7.33
2018-09-30T17:30:47.462Z,8.90
2018-09-30T17:33:16.349Z,9.70
2018-09-30T17:35:45.201Z,9.87
2018-09-30T17:38:14.048Z,10.00
2018-09-30T17:40:42.958Z,8.80
2018-09-30T17:43:11.899Z,10.93
2018-09-30T17:45:40.779Z,7.53
2018-09-30T17:48:11.442Z,9.57
2018-09-30T17:50:40.511Z,10.33
2018-09-30T17:53:09.539Z,9.60
2018-09-30T17:55:38.443Z,9.10
2018-09-30T17:58:07.323Z,8.00
2018-09-30T18:00:38.817Z,11.33
2018-09-30T18:03:09.215Z,6.57
2018-09-30T18:05:39.679Z,7.20
2018-09-30T18:08:09.586Z,9.93
2018-09-30T18:10:39.528Z,8.77
2018-09-30T18:13:09.282Z,7.07
2018-09-30T18:15:39.353Z,6.87
2018-09-30T18:18:08.547Z,7.50
2018-09-30T18:20:40.095Z,9.90
2018-09-30T18:23:10.604Z,8.33
2018-09-30T18:25:42.341Z,8.00
2018-09-30T18:28:12.863Z,7.43
2018-09-30T18:30:44.642Z,10.77
2018-09-30T18:33:14.970Z,7.57
2018-09-30T18:35:45.272Z,7.37
2018-09-30T18:38:14.400Z,10.30
2018-09-30T18:40:48.883Z,6.73
2018-09-30T18:43:20.372Z,7.97
2018-09-30T18:45:50.860Z,8.00
2018-09-30T18:48:20.692Z,8.63
2018-09-30T18:50:51.657Z,10.40
2018-09-30T18:53:21.099Z,9.60
2018-09-30T18:55:50.159Z,8.40
2018-09-30T18:58:19.097Z,8.63
2018-09-30T19:00:48.053Z,8.90
2018-09-30T19:03:17.007Z,7.67
2018-09-30T19:05:47.313Z,7.50
2018-09-30T19:08:16.165Z,7.53
2018-09-30T19:10:45.011Z,6.50
2018-09-30T19:13:13.889Z,8.27
2018-09-30T19:15:43.189Z,11.67
2018-09-30T19:18:12.006Z,11.13
2018-09-30T19:20:42.107Z,4.83
2018-09-30T19:23:11.078Z,9.93
2018-09-30T19:25:40.000Z,6.27
2018-09-30T19:28:11.487Z,6.40
2018-09-30T19:30:40.375Z,6.37
2018-09-30T19:33:09.237Z,5.83
2018-09-30T19:35:39.417Z,6.13
2018-09-30T19:38:08.558Z,5.37
2018-09-30T19:40:37.624Z,6.43
2018-09-30T19:43:08.106Z,5.47
2018-09-30T19:45:37.032Z,6.73
2018-09-30T19:48:06.872Z,7.47
2018-09-30T19:50:35.851Z,5.33
2018-09-30T19:53:04.785Z,5.00
2018-09-30T19:55:33.687Z,5.97
2018-09-30T19:58:03.888Z,8.10
2018-09-30T20:00:32.726Z,5.50
2018-09-30T20:03:01.559Z,10.57
2018-09-30T20:05:30.446Z,7.90
2018-09-30T20:07:59.415Z,6.85
2018-09-30T20:10:28.311Z,6.43
2018-09-30T20:12:58.361Z,7.53
2018-09-30T20:15:27.436Z,7.97
2018-09-30T20:17:56.292Z,6.57
2018-09-30T20:20:25.556Z,7.03
2018-09-30T20:22:54.412Z,8.40
2018-09-30T20:25:23.254Z,8.03
2018-09-30T20:27:53.362Z,9.77
2018-09-30T20:30:22.191Z,6.13
2018-09-30T20:32:51.021Z,5.43
2018-09-30T20:35:19.878Z,5.60
2018-09-30T20:37:48.698Z,7.73
2018-09-30T20:40:17.506Z,8.10
2018-09-30T20:42:46.382Z,8.20
2018-09-30T20:45:16.635Z,6.87
2018-09-30T20:47:46.874Z,5.90
2018-09-30T20:50:17.319Z,7.00
2018-09-30T20:52:46.157Z,6.97
2018-09-30T20:55:14.966Z,8.33
2018-09-30T20:57:43.775Z,9.60
2018-09-30T21:00:12.651Z,8.10
2018-09-30T21:02:41.472Z,8.68
2018-09-30T21:06:16.570Z,7.00
2018-09-30T21:08:46.250Z,9.33
2018-09-30T21:11:15.142Z,9.00
2018-09-30T21:13:44.115Z,10.07
2018-09-30T21:16:13.434Z,6.87
2018-09-30T21:18:42.440Z,8.70
2018-09-30T21:21:11.295Z,7.50
2018-09-30T21:23:40.115Z,7.03
2018-09-30T21:26:09.027Z,8.57
2018-09-30T21:28:37.868Z,9.07
2018-09-30T21:31:06.831Z,7.60
2018-09-30T21:33:35.804Z,6.37
2018-09-30T21:36:04.663Z,11.07
2018-09-30T21:38:33.584Z,8.30
2018-09-30T21:41:02.437Z,7.80
2018-09-30T21:43:31.302Z,8.33
2018-09-30T21:46:00.183Z,7.03
2018-09-30T21:48:29.069Z,8.13
2018-09-30T21:50:57.993Z,10.53
2018-09-30T21:53:26.932Z,11.17
2018-09-30T21:55:55.888Z,9.37
2018-09-30T21:58:24.765Z,9.00
2018-09-30T22:01:02.850Z,9.47
2018-09-30T22:03:31.936Z,8.67
2018-09-30T22:06:00.898Z,10.33
2018-09-30T22:08:29.858Z,13.43
2018-09-30T22:10:58.750Z,10.17
2018-09-30T22:13:27.629Z,9.30
2018-09-30T22:15:56.549Z,13.50
2018-09-30T22:18:25.668Z,13.53
2018-09-30T22:20:54.561Z,11.23
2018-09-30T22:23:23.445Z,10.37
2018-09-30T22:25:52.377Z,11.03
2018-09-30T22:28:21.249Z,10.47
2018-09-30T22:30:50.079Z,12.60
2018-09-30T22:33:18.895Z,12.20
2018-09-30T22:35:47.760Z,11.93
2018-09-30T22:38:16.585Z,17.23
2018-09-30T22:40:45.411Z,14.07
2018-09-30T22:43:15.738Z,13.37
2018-09-30T22:45:44.529Z,14.87
2018-09-30T22:48:13.344Z,14.00
2018-09-30T22:50:42.230Z,16.57
2018-09-30T22:53:11.114Z,14.57
2018-09-30T22:55:39.946Z,16.17
2018-09-30T22:58:08.792Z,14.60
2018-09-30T23:00:37.659Z,15.87
2018-09-30T23:03:06.470Z,18.53
2018-09-30T23:05:35.302Z,17.57
2018-09-30T23:08:04.233Z,19.27
2018-09-30T23:10:33.043Z,24.33
2018-09-30T23:13:01.860Z,19.10
2018-09-30T23:15:30.726Z,16.50
2018-09-30T23:17:59.562Z,19.17
2018-09-30T23:20:28.385Z,17.73
2018-09-30T23:22:57.182Z,17.67
2018-09-30T23:25:26.102Z,16.70
2018-09-30T23:27:54.898Z,18.47
2018-09-30T23:30:23.686Z,18.07
2018-09-30T23:32:52.550Z,18.70
2018-09-30T23:35:21.359Z,16.50
2018-09-30T23:37:50.169Z,18.43
2018-09-30T23:40:19.066Z,19.33
2018-09-30T23:42:47.900Z,21.17
2018-09-30T23:45:16.792Z,19.50
2018-09-30T23:47:47.035Z,20.90
2018-09-30T23:50:15.871Z,17.63
2018-09-30T23:52:44.741Z,17.07
2018-09-30T23:55:13.575Z,19.87
2018-09-30T23:57:42.365Z,20.55
